Time;durP1;ratioP1;P1;durP2;ratioP2;P2;SDS_P1;SDS_P2;PMS_P1;PMS_P2;Temp;Humidity;BMP_temperature;BMP_pressure;BME280_temperature;BME280_humidity;BME280_pressure;Samples;Min_cycle;Max_cycle;Signal;HPM_P1;HPM_P2
2022/09/11 00:01:11;;;;;;;13.45;8.00;;;;;;;17.18;100.00;94836.59;5102273;27;20140;-73
2022/09/11 00:03:39;;;;;;;12.75;7.07;;;;;;;17.18;100.00;94826.06;5101045;27;20048;-73
2022/09/11 00:06:09;;;;;;;12.27;7.68;;;;;;;17.08;100.00;94820.84;5101279;27;20062;-73
2022/09/11 00:08:38;;;;;;;13.27;6.80;;;;;;;17.10;100.00;94835.28;5080736;27;20066;-73
2022/09/11 00:11:11;;;;;;;14.35;8.32;;;;;;;17.03;100.00;94818.25;5079929;28;20313;-73
2022/09/11 00:13:39;;;;;;;13.70;7.97;;;;;;;17.04;100.00;94825.09;5082711;28;20047;-73
2022/09/11 00:16:16;;;;;;;11.63;7.95;;;;;;;17.04;100.00;94825.09;5099212;27;20046;-73
2022/09/11 00:18:45;;;;;;;15.35;7.38;;;;;;;16.96;100.00;94823.78;5100062;27;20588;-73
2022/09/11 00:21:12;;;;;;;12.95;7.43;;;;;;;16.98;100.00;94835.63;5102536;27;20043;-73
2022/09/11 00:23:39;;;;;;;12.75;6.60;;;;;;;16.97;100.00;94830.63;5103769;28;20576;-73
2022/09/11 00:26:06;;;;;;;16.60;9.23;;;;;;;16.86;100.00;94818.59;5083062;28;20043;-73
2022/09/11 00:28:33;;;;;;;17.83;7.53;;;;;;;16.78;100.00;94814.63;5082429;28;20119;-73
2022/09/11 00:31:06;;;;;;;14.57;7.57;;;;;;;16.83;100.00;94830.44;5083001;28;20039;-73
2022/09/11 00:33:34;;;;;;;16.35;8.40;;;;;;;16.81;100.00;94832.53;5116400;27;20639;-73
2022/09/11 00:36:06;;;;;;;16.45;8.55;;;;;;;16.82;100.00;94829.63;5105113;27;20036;-73
2022/09/11 00:38:36;;;;;;;13.73;8.35;;;;;;;16.70;100.00;94820.47;5072855;28;20097;-73
2022/09/11 00:41:07;;;;;;;13.55;9.02;;;;;;;16.81;100.00;94837.78;5081147;27;20100;-74
2022/09/11 00:43:56;;;;;;;16.55;8.38;;;;;;;16.75;100.00;94836.25;5104822;27;20143;-73
2022/09/11 00:46:30;;;;;;;13.73;8.48;;;;;;;16.73;100.00;94830.47;5081793;28;20055;-74
2022/09/11 00:49:01;;;;;;;15.70;8.60;;;;;;;16.63;100.00;94811.03;5062974;27;20136;-73
2022/09/11 00:51:32;;;;;;;11.85;8.13;;;;;;;16.63;100.00;94811.03;5065031;27;20055;-74
2022/09/11 00:54:02;;;;;;;11.93;8.48;;;;;;;16.54;100.00;94807.38;5077869;28;20057;-74
2022/09/11 00:56:34;;;;;;;15.18;9.15;;;;;;;16.55;100.00;94808.19;5082313;28;20040;-74
2022/09/11 00:59:02;;;;;;;18.75;8.60;;;;;;;16.50;100.00;94811.59;5097924;27;20440;-74
2022/09/11 01:01:29;;;;;;;16.98;8.25;;;;;;;16.62;100.00;94819.97;5102379;28;20117;-74
2022/09/11 01:03:56;;;;;;;13.90;8.82;;;;;;;16.55;100.00;94819.47;5097357;27;20043;-74
2022/09/11 01:06:24;;;;;;;13.73;7.57;;;;;;;16.52;100.00;94816.59;5083367;28;20047;-73
2022/09/11 01:08:51;;;;;;;19.55;8.60;;;;;;;16.34;100.00;94797.72;5096107;28;20079;-74
2022/09/11 01:11:29;;;;;;;15.82;9.50;;;;;;;16.47;100.00;94825.28;5061913;28;20744;-74
2022/09/11 01:14:24;;;;;;;14.63;8.60;;;;;;;16.52;100.00;94829.75;5075129;28;20119;-74
2022/09/11 01:16:57;;;;;;;10.77;7.68;;;;;;;16.50;100.00;94832.63;5062983;28;20046;-74
2022/09/11 01:20:08;;;;;;;13.20;8.73;;;;;;;16.48;100.00;94829.50;5096567;28;20448;-74
2022/09/11 01:22:50;;;;;;;12.80;8.10;;;;;;;16.41;100.00;94828.97;5060154;28;20066;-74
2022/09/11 01:25:36;;;;;;;16.80;8.45;;;;;;;16.36;100.00;94831.63;5077582;28;20134;-74
2022/09/11 01:28:10;;;;;;;14.27;9.02;;;;;;;16.31;100.00;94834.25;5099495;28;20047;-73
2022/09/11 01:30:45;;;;;;;18.35;9.75;;;;;;;16.31;100.00;94834.25;5061014;28;20551;-74
2022/09/11 01:33:27;;;;;;;14.23;9.02;;;;;;;16.28;100.00;94842.66;5064167;28;20840;-74
2022/09/11 01:36:03;;;;;;;15.25;8.38;;;;;;;16.24;100.00;94840.59;5061365;28;20043;-73
2022/09/11 01:38:51;;;;;;;18.85;9.27;;;;;;;16.21;100.00;94830.59;5077836;28;20043;-73
2022/09/11 01:41:26;;;;;;;15.02;9.57;;;;;;;16.19;100.00;94843.22;5078604;28;20078;-75
2022/09/11 01:44:16;;;;;;;18.27;10.07;;;;;;;16.21;100.00;94835.84;5070252;28;20067;-74
2022/09/11 01:46:49;;;;;;;17.08;9.90;;;;;;;16.21;100.00;94827.97;5078433;28;20762;-74
2022/09/11 01:49:36;;;;;;;17.58;9.88;;;;;;;16.21;100.00;94827.97;5081969;28;20086;-74
2022/09/11 01:52:14;;;;;;;19.13;9.10;;;;;;;16.13;100.00;94818.00;5079236;28;20625;-75
2022/09/11 01:54:50;;;;;;;16.05;9.52;;;;;;;16.09;100.00;94816.19;5086677;28;20130;-74
2022/09/11 01:57:29;;;;;;;19.08;9.57;;;;;;;16.06;100.00;94817.47;5080555;28;20055;-74
2022/09/11 02:00:00;;;;;;;15.60;8.68;;;;;;;16.01;100.00;94799.91;5096504;28;20077;-74
2022/09/11 02:02:35;;;;;;;15.68;9.25;;;;;;;16.11;100.00;94814.84;5080324;28;20723;-74
2022/09/11 02:05:16;;;;;;;;;;;;;;;16.12;100.00;94816.44;5081408;28;20040;-74
2022/09/11 02:07:57;;;;;;;17.30;9.82;;;;;;;16.11;100.00;94816.69;5101379;28;20444;-74
2022/09/11 02:10:38;;;;;;;13.75;9.35;;;;;;;16.08;100.00;94810.16;5084364;28;20101;-74
2022/09/11 02:13:11;;;;;;;14.18;9.57;;;;;;;16.10;100.00;94807.22;5096631;28;20052;-74
2022/09/11 02:15:47;;;;;;;19.25;10.52;;;;;;;16.07;100.00;94813.81;5082765;28;20048;-74
2022/09/11 02:18:23;;;;;;;18.90;10.60;;;;;;;16.04;100.00;94798.56;5084307;28;20047;-74
2022/09/11 02:20:52;;;;;;;12.65;10.18;;;;;;;16.07;100.00;94807.78;5084140;27;20483;-74
2022/09/11 02:23:20;;;;;;;16.30;10.88;;;;;;;16.13;100.00;94811.97;5085528;27;20058;-74
2022/09/11 02:25:47;;;;;;;17.52;10.50;;;;;;;16.00;100.00;94795.69;5087164;27;20130;-74
2022/09/11 02:28:14;;;;;;;16.35;9.95;;;;;;;16.12;100.00;94811.19;5085251;28;20043;-74
2022/09/11 02:30:42;;;;;;;20.20;11.05;;;;;;;16.12;100.00;94810.41;5065365;27;20053;-75
2022/09/11 02:33:46;;;;;;;24.67;10.38;;;;;;;16.17;100.00;94808.53;5085708;28;20174;-75
2022/09/11 02:36:38;;;;;;;18.75;11.10;;;;;;;16.21;100.00;94809.59;5014409;28;20045;-74
2022/09/11 02:39:23;;;;;;;17.77;10.98;;;;;;;16.18;100.00;94804.84;5091685;28;20101;-74
2022/09/11 02:42:09;;;;;;;14.48;10.23;;;;;;;16.16;100.00;94812.22;5082599;28;20040;-74
2022/09/11 02:44:53;;;;;;;17.85;10.43;;;;;;;16.11;100.00;94814.84;5079872;28;20110;-75
2022/09/11 02:47:44;;;;;;;13.07;9.88;;;;;;;16.12;100.00;94813.81;5083231;28;20052;-74
2022/09/11 02:50:23;;;;;;;16.60;11.25;;;;;;;16.08;100.00;94807.53;5080071;27;20066;-75
2022/09/11 02:53:17;;;;;;;18.05;10.75;;;;;;;16.05;100.00;94808.03;5083056;28;20039;-74
2022/09/11 02:55:47;;;;;;;14.18;10.18;;;;;;;16.03;100.00;94802.28;5080400;27;20040;-75
2022/09/11 02:58:21;;;;;;;16.40;11.30;;;;;;;15.98;100.00;94789.13;5083422;27;20040;-74
2022/09/11 03:00:49;;;;;;;14.77;10.38;;;;;;;15.87;100.00;94777.84;5100560;27;20044;-74
2022/09/11 03:03:19;;;;;;;13.82;10.23;;;;;;;15.99;100.00;94788.06;5060096;28;20094;-74
2022/09/11 03:05:46;;;;;;;14.73;10.80;;;;;;;15.98;100.00;94804.91;5057970;28;20136;-73
2022/09/11 03:08:16;;;;;;;20.15;12.52;;;;;;;15.92;100.00;94800.69;5055840;28;20036;-74
2022/09/11 03:10:48;;;;;;;17.60;11.63;;;;;;;15.90;100.00;94808.03;5043113;28;20040;-74
2022/09/11 03:13:16;;;;;;;20.67;11.25;;;;;;;15.87;100.00;94814.63;5054225;28;20135;-73
2022/09/11 03:15:44;;;;;;;19.20;12.05;;;;;;;15.81;100.00;94808.59;5059113;28;20075;-73
2022/09/11 03:18:14;;;;;;;17.75;13.18;;;;;;;15.77;100.00;94810.19;5039052;28;20049;-74
2022/09/11 03:20:48;;;;;;;17.95;11.85;;;;;;;15.77;100.00;94810.19;5057646;28;20072;-74
2022/09/11 03:23:15;;;;;;;;;;;;;;;15.76;100.00;94803.34;5054965;28;20036;-73
2022/09/11 03:25:42;;;;;;;16.52;11.30;;;;;;;15.66;100.00;94816.44;5058499;28;19965;-74
2022/09/11 03:28:10;;;;;;;17.58;11.55;;;;;;;15.60;100.00;94809.63;5054379;28;20131;-74
2022/09/11 03:30:40;;;;;;;25.40;12.15;;;;;;;15.61;100.00;94816.44;5056027;28;20149;-73
2022/09/11 03:33:08;;;;;;;20.52;12.20;;;;;;;15.59;100.00;94815.91;5079685;28;20237;-75
2022/09/11 03:35:35;;;;;;;18.50;12.43;;;;;;;15.60;100.00;94826.16;5057884;28;20165;-74
2022/09/11 03:38:03;;;;;;;23.17;12.77;;;;;;;15.59;100.00;94834.28;5056058;28;20060;-73
2022/09/11 03:40:29;;;;;;;19.00;12.32;;;;;;;15.55;100.00;94828.00;5039948;28;20090;-74
2022/09/11 03:42:58;;;;;;;19.33;12.40;;;;;;;15.54;100.00;94831.66;5059089;28;20053;-73
2022/09/11 03:45:25;;;;;;;23.50;14.63;;;;;;;15.47;100.00;94819.59;5057126;28;20044;-74
2022/09/11 03:47:52;;;;;;;20.77;13.30;;;;;;;15.58;100.00;94837.97;5060021;28;20043;-74
2022/09/11 03:50:19;;;;;;;18.52;13.20;;;;;;;15.51;100.00;94824.31;5056764;28;20048;-73
2022/09/11 03:52:46;;;;;;;21.00;14.90;;;;;;;15.44;100.00;94817.47;5059233;28;20085;-74
2022/09/11 03:55:13;;;;;;;29.05;14.25;;;;;;;15.57;100.00;94839.00;5060933;28;20040;-74
2022/09/11 03:57:40;;;;;;;26.48;14.30;;;;;;;15.52;100.00;94839.00;5061809;28;20045;-74
2022/09/11 04:00:09;;;;;;;22.10;13.80;;;;;;;15.47;100.00;94848.47;5059539;28;20052;-74
2022/09/11 04:02:48;;;;;;;21.70;13.27;;;;;;;15.35;100.00;94818.25;5061381;28;20083;-75
2022/09/11 04:05:29;;;;;;;27.80;14.40;;;;;;;15.32;100.00;94830.06;5053899;28;20987;-74
2022/09/11 04:07:59;;;;;;;21.00;13.45;;;;;;;15.31;100.00;94836.38;5060816;28;20540;-74
2022/09/11 04:10:26;;;;;;;21.08;13.57;;;;;;;15.27;100.00;94838.72;5057862;28;20060;-74
2022/09/11 04:12:56;;;;;;;22.42;13.90;;;;;;;15.14;100.00;94828.72;5062112;28;20048;-74
2022/09/11 04:15:23;;;;;;;18.70;13.23;;;;;;;15.05;100.00;94820.59;5069521;28;20056;-73
2022/09/11 04:17:50;;;;;;;22.42;12.93;;;;;;;15.08;100.00;94830.53;5042666;28;20134;-74
2022/09/11 04:20:18;;;;;;;26.88;14.00;;;;;;;15.13;100.00;94836.88;5058013;28;20044;-70
2022/09/11 04:22:45;;;;;;;21.73;14.52;;;;;;;15.00;100.00;94823.19;5055263;28;21481;-70
2022/09/11 04:25:13;;;;;;;28.52;14.60;;;;;;;15.13;100.00;94834.25;5059818;28;20105;-68
2022/09/11 04:27:40;;;;;;;20.50;13.95;;;;;;;15.06;100.00;94822.13;5056489;28;20040;-74
2022/09/11 04:30:11;;;;;;;23.13;14.07;;;;;;;15.09;100.00;94832.13;5060571;28;20048;-67
2022/09/11 04:32:38;;;;;;;22.15;14.25;;;;;;;15.10;100.00;94840.78;5057817;28;20048;-67
2022/09/11 04:35:05;;;;;;;21.13;13.55;;;;;;;15.13;100.00;94842.09;5059835;28;20528;-67
2022/09/11 04:37:39;;;;;;;19.65;13.52;;;;;;;15.09;100.00;94821.63;5054282;28;20044;-66
2022/09/11 04:40:08;;;;;;;22.05;13.73;;;;;;;15.18;100.00;94835.03;5058168;28;20137;-68
2022/09/11 04:42:36;;;;;;;22.73;14.18;;;;;;;15.23;100.00;94842.09;5054865;28;20736;-68
2022/09/11 04:45:03;;;;;;;21.95;14.07;;;;;;;15.22;100.00;94841.34;5057288;28;20043;-68
2022/09/11 04:47:31;;;;;;;22.33;14.23;;;;;;;15.17;100.00;94835.28;5055478;28;20579;-68
2022/09/11 04:49:58;;;;;;;24.45;13.90;;;;;;;15.25;100.00;94840.00;5056974;28;20041;-68
2022/09/11 04:52:26;;;;;;;21.17;14.10;;;;;;;15.27;100.00;94843.19;5056262;28;20880;-69
2022/09/11 04:54:53;;;;;;;23.35;14.27;;;;;;;15.35;100.00;94850.53;5054854;28;20048;-67
2022/09/11 04:57:20;;;;;;;26.08;15.52;;;;;;;15.39;100.00;94854.22;5076393;28;20514;-67
2022/09/11 04:59:49;;;;;;;24.92;14.48;;;;;;;15.38;100.00;94852.66;5037203;28;20499;-67
2022/09/11 05:02:17;;;;;;;25.27;15.48;;;;;;;15.44;100.00;94848.97;5059230;28;20098;-67
2022/09/11 05:04:47;;;;;;;25.52;14.38;;;;;;;15.49;100.00;94851.59;5056791;28;20048;-68
2022/09/11 05:07:14;;;;;;;30.85;15.85;;;;;;;15.51;100.00;94853.19;5059774;28;20045;-68
2022/09/11 05:09:46;;;;;;;32.50;15.23;;;;;;;15.55;100.00;94859.50;5055096;28;20060;-67
2022/09/11 05:12:13;;;;;;;26.67;14.23;;;;;;;15.58;100.00;94858.97;5058659;28;20055;-67
2022/09/11 05:14:40;;;;;;;22.38;14.73;;;;;;;15.61;100.00;94858.44;5040125;28;20044;-67
2022/09/11 05:17:07;;;;;;;27.25;15.13;;;;;;;15.64;100.00;94853.44;5090476;28;20071;-68
2022/09/11 05:19:39;;;;;;;29.08;14.75;;;;;;;15.60;100.00;94857.66;5057702;28;20052;-67
2022/09/11 05:22:06;;;;;;;22.83;14.23;;;;;;;15.65;100.00;94849.00;5059653;28;20036;-68
2022/09/11 05:24:35;;;;;;;25.92;14.13;;;;;;;15.68;100.00;94844.03;5064608;28;20048;-67
2022/09/11 05:27:02;;;;;;;25.42;15.75;;;;;;;15.77;100.00;94852.19;5066765;28;20044;-67
2022/09/11 05:29:29;;;;;;;23.05;16.27;;;;;;;15.89;100.00;94851.13;5066194;28;20040;-67
2022/09/11 05:32:07;;;;;;;21.42;15.02;;;;;;;15.97;100.00;94846.16;5062396;28;20076;-67
2022/09/11 05:34:34;;;;;;;21.48;16.00;;;;;;;16.01;100.00;94846.41;5069371;28;20052;-67
2022/09/11 05:37:01;;;;;;;23.00;15.30;;;;;;;15.93;100.00;94852.19;5064693;28;20148;-67
2022/09/11 05:39:33;;;;;;;24.50;14.63;;;;;;;16.10;100.00;94852.69;5066097;28;20049;-67
2022/09/11 05:42:03;;;;;;;25.25;14.65;;;;;;;16.15;100.00;94851.88;5060742;28;20040;-67
2022/09/11 05:44:32;;;;;;;23.20;14.57;;;;;;;16.17;100.00;94855.84;5064307;28;20110;-66
2022/09/11 05:46:59;;;;;;;24.50;15.93;;;;;;;16.20;100.00;94850.03;5065815;28;20054;-67
2022/09/11 05:49:27;;;;;;;20.92;14.68;;;;;;;16.22;100.00;94842.69;5046961;28;20048;-67
2022/09/11 05:51:55;;;;;;;21.23;15.10;;;;;;;16.38;100.00;94850.53;5066316;28;20045;-67
2022/09/11 05:54:24;;;;;;;29.98;19.30;;;;;;;16.52;100.00;94846.28;5068639;28;20475;-68
2022/09/11 05:56:53;;;;;;;23.30;14.68;;;;;;;16.62;100.00;94854.16;5068979;28;20054;-67
2022/09/11 05:59:25;;;;;;;17.33;12.75;;;;;;;16.62;100.00;94854.16;5072320;28;20068;-68
2022/09/11 06:01:53;;;;;;;20.30;13.13;;;;;;;16.72;100.00;94845.44;5065304;28;20056;-68
2022/09/11 06:04:32;;;;;;;25.85;15.23;;;;;;;16.84;100.00;94850.44;5066632;28;20036;-67
2022/09/11 06:07:00;;;;;;;18.60;12.88;;;;;;;16.96;100.00;94858.00;5068300;28;20117;-68
2022/09/11 06:09:27;;;;;;;17.00;12.23;;;;;;;16.94;100.00;94858.28;5067493;28;20040;-67
2022/09/11 06:11:55;;;;;;;17.67;12.45;;;;;;;17.04;100.00;94859.28;5063727;28;20048;-67
2022/09/11 06:14:22;;;;;;;17.50;12.55;;;;;;;17.11;100.00;94862.41;5070728;28;20040;-68
2022/09/11 06:16:49;;;;;;;16.98;12.00;;;;;;;17.17;100.00;94850.78;5066125;28;20164;-67
2022/09/11 06:19:16;;;;;;;21.75;13.30;;;;;;;17.22;100.00;94861.31;5051033;28;20510;-68
2022/09/11 06:21:44;;;;;;;15.15;10.52;;;;;;;17.31;100.00;94864.94;5065615;28;20155;-68
2022/09/11 06:24:35;;;;;;;27.88;13.25;;;;;;;17.39;100.00;94868.81;5061846;28;20135;-68
2022/09/11 06:27:02;;;;;;;18.20;11.65;;;;;;;17.30;100.00;94855.44;5067275;28;20083;-70
2022/09/11 06:29:32;;;;;;;18.25;10.95;;;;;;;17.39;100.00;94859.09;5071413;28;20047;-71
2022/09/11 06:32:00;;;;;;;15.75;11.27;;;;;;;17.43;100.00;94863.81;5072824;28;20481;-70
2022/09/11 06:34:30;;;;;;;37.17;12.27;;;;;;;17.53;100.00;94869.78;5074880;28;20044;-71
2022/09/11 06:37:01;;;;;;;14.80;11.57;;;;;;;17.61;100.00;94860.53;5076439;28;20048;-71
2022/09/11 06:39:30;;;;;;;19.05;13.75;;;;;;;17.71;100.00;94865.72;5075753;28;20042;-71
2022/09/11 06:41:58;;;;;;;18.33;12.02;;;;;;;17.89;100.00;94871.44;5069980;28;20043;-71
2022/09/11 06:44:29;;;;;;;18.27;12.60;;;;;;;17.90;100.00;94862.47;5070336;28;20043;-71
2022/09/11 06:46:58;;;;;;;14.57;11.85;;;;;;;18.02;100.00;94876.03;5063748;28;20051;-72
2022/09/11 06:49:26;;;;;;;16.48;11.52;;;;;;;18.13;100.00;94869.66;5065175;28;20044;-72
2022/09/11 06:52:11;;;;;;;19.40;13.35;;;;;;;18.32;100.00;94884.75;5056987;28;20138;-72
2022/09/11 06:54:43;;;;;;;18.63;12.48;;;;;;;18.48;100.00;94886.19;5068107;28;20056;-79
2022/09/11 06:57:13;;;;;;;14.88;11.25;;;;;;;18.54;100.00;94882.41;5057951;28;20044;-79
2022/09/11 06:59:41;;;;;;;18.15;11.23;;;;;;;18.58;100.00;94876.59;5041455;28;21290;-68
2022/09/11 07:02:09;;;;;;;16.60;12.15;;;;;;;18.53;100.00;94875.59;5073841;28;20043;-70
2022/09/11 07:04:36;;;;;;;16.55;12.07;;;;;;;18.57;100.00;94875.03;5081610;28;20032;-78
2022/09/11 07:07:04;;;;;;;19.13;12.52;;;;;;;18.61;100.00;94881.31;5112480;27;20047;-77
2022/09/11 07:09:32;;;;;;;19.75;13.20;;;;;;;18.51;100.00;94872.44;5083613;28;20051;-79
2022/09/11 07:11:59;;;;;;;21.30;15.07;;;;;;;18.57;100.00;94875.03;5079747;28;20040;-78
2022/09/11 07:14:28;;;;;;;18.42;12.02;;;;;;;18.67;100.00;94881.00;5082301;28;20048;-75
2022/09/11 07:17:06;;;;;;;15.45;11.82;;;;;;;18.78;100.00;94881.66;5075548;28;20044;-69
2022/09/11 07:19:33;;;;;;;16.45;11.93;;;;;;;18.99;100.00;94884.09;5079320;28;20044;-68
2022/09/11 07:22:01;;;;;;;18.98;12.57;;;;;;;19.13;100.00;94882.34;5083210;28;20065;-68
2022/09/11 07:24:29;;;;;;;18.08;11.15;;;;;;;19.15;100.00;94860.94;5077960;28;20036;-74
2022/09/11 07:26:56;;;;;;;16.20;11.50;;;;;;;19.42;100.00;94889.34;5093790;27;20443;-72
2022/09/11 07:29:30;;;;;;;17.52;11.98;;;;;;;19.54;100.00;94889.72;5060963;28;20441;-72
2022/09/11 07:31:57;;;;;;;16.15;10.88;;;;;;;19.57;100.00;94877.78;5079365;28;20724;-68
2022/09/11 07:34:26;;;;;;;17.60;11.32;;;;;;;19.83;100.00;94886.16;5080096;28;20036;-68
2022/09/11 07:36:54;;;;;;;14.05;10.65;;;;;;;19.96;100.00;94888.06;5084785;28;20039;-66
2022/09/11 07:39:24;;;;;;;13.55;10.30;;;;;;;20.19;100.00;94880.31;5080364;28;20085;-66
2022/09/11 07:41:59;;;;;;;17.30;10.25;;;;;;;20.40;100.00;94875.44;5079113;28;20044;-66
2022/09/11 07:44:28;;;;;;;12.43;9.85;;;;;;;20.69;100.00;94862.00;5077250;28;20138;-66
2022/09/11 07:46:56;;;;;;;13.32;9.40;;;;;;;20.75;100.00;94871.38;5079187;28;20495;-66
2022/09/11 07:49:23;;;;;;;14.73;10.38;;;;;;;20.42;100.00;94884.66;5086803;27;20125;-69
2022/09/11 07:51:51;;;;;;;12.13;9.52;;;;;;;20.31;100.00;94883.28;5080062;28;20051;-69
2022/09/11 07:54:27;;;;;;;;;;;;;;;20.30;100.00;94881.69;5077162;28;20158;-69
2022/09/11 07:56:56;;;;;;;16.58;10.27;;;;;;;20.28;100.00;94862.69;5077193;28;19924;-69
2022/09/11 07:59:23;;;;;;;15.55;10.13;;;;;;;20.53;100.00;94868.63;5071362;28;20055;-69
2022/09/11 08:01:52;;;;;;;14.27;10.93;;;;;;;20.59;100.00;94867.44;5076492;28;20527;-69
2022/09/11 08:04:19;;;;;;;15.00;10.45;;;;;;;20.66;100.00;94867.09;5078662;28;20150;-69
2022/09/11 08:06:47;;;;;;;14.35;10.38;;;;;;;20.78;100.00;94854.94;5080186;28;20068;-69
2022/09/11 08:09:20;;;;;;;;;;;;;;;21.20;100.00;94871.53;5085244;28;20044;-69
2022/09/11 08:11:54;;;;;;;13.90;9.10;;;;;;;21.53;100.00;94863.44;5080201;28;19963;-68
2022/09/11 08:14:23;;;;;;;11.93;9.35;;;;;;;21.84;100.00;94865.44;5083144;28;20463;-69
2022/09/11 08:16:52;;;;;;;10.88;8.25;;;;;;;22.18;100.00;94872.00;5060372;28;20119;-68
2022/09/11 08:19:22;;;;;;;12.80;9.35;;;;;;;22.40;100.00;94867.78;5080946;28;20044;-69
2022/09/11 08:21:54;;;;;;;10.68;8.02;;;;;;;22.50;99.37;94867.53;5077421;28;20052;-69
2022/09/11 08:24:21;;;;;;;12.52;9.07;;;;;;;22.66;100.00;94868.69;5084800;28;20183;-69
2022/09/11 08:26:50;;;;;;;11.52;8.52;;;;;;;22.74;100.00;94839.84;5077815;28;20151;-69
2022/09/11 08:29:18;;;;;;;12.60;8.18;;;;;;;23.12;100.00;94849.94;5078442;28;20483;-68
2022/09/11 08:31:46;;;;;;;9.75;8.60;;;;;;;23.50;96.28;94854.69;5072315;28;20036;-68
2022/09/11 08:34:14;;;;;;;10.70;8.68;;;;;;;23.68;94.96;94856.28;5074180;28;20048;-69
2022/09/11 08:36:43;;;;;;;11.75;7.75;;;;;;;23.77;87.18;94849.06;5080104;28;20051;-72
2022/09/11 08:39:11;;;;;;;9.05;7.93;;;;;;;23.61;82.77;94855.97;5072371;28;20513;-73
2022/09/11 08:41:48;;;;;;;13.18;7.38;;;;;;;23.36;82.99;94860.16;5079220;28;20144;-72
2022/09/11 08:44:22;;;;;;;10.68;8.00;;;;;;;23.06;84.69;94858.06;5075009;28;20044;-71
2022/09/11 08:47:00;;;;;;;9.77;8.75;;;;;;;22.67;88.23;94851.69;5080594;28;20047;-71
2022/09/11 08:49:46;;;;;;;;;;;;;;;22.93;86.85;94853.63;5078593;28;20119;-71
2022/09/11 08:52:15;;;;;;;10.52;7.25;;;;;;;23.06;80.78;94851.97;5078258;28;19934;-70
2022/09/11 08:54:46;;;;;;;8.75;7.07;;;;;;;23.14;79.25;94847.75;5075791;28;20639;-71
2022/09/11 08:57:15;;;;;;;10.27;7.90;;;;;;;23.12;80.03;94849.94;5072372;28;20086;-70
2022/09/11 09:00:22;;;;;;;13.82;8.13;;;;;;;23.37;80.61;94849.22;5073189;28;20090;-67
2022/09/11 09:03:01;;;;;;;8.23;7.13;;;;;;;23.61;80.51;94847.97;4985809;28;20046;-67
2022/09/11 09:05:54;;;;;;;10.13;7.32;;;;;;;23.64;77.31;94836.69;5065775;28;20097;-67
2022/09/11 09:08:36;;;;;;;9.45;6.93;;;;;;;23.61;78.05;94834.69;5034978;28;20044;-66
2022/09/11 09:11:39;;;;;;;9.37;7.27;;;;;;;23.38;77.05;94832.19;5075695;28;20040;-67
2022/09/11 09:14:28;;;;;;;13.93;7.05;;;;;;;23.31;75.67;94831.09;5030873;28;20041;-67
2022/09/11 09:17:05;;;;;;;10.35;7.05;;;;;;;23.49;71.52;94830.00;5068764;28;20040;-66
2022/09/11 09:19:40;;;;;;;9.18;7.15;;;;;;;23.45;70.70;94821.84;5071592;28;20757;-66
2022/09/11 09:22:20;;;;;;;11.20;7.13;;;;;;;23.17;72.62;94823.25;5073002;28;20048;-67
2022/09/11 09:24:52;;;;;;;26.15;10.23;;;;;;;23.27;72.16;94825.59;5073390;28;20109;-65
2022/09/11 09:27:27;;;;;;;22.83;8.65;;;;;;;23.53;74.22;94822.16;5076008;28;20749;-68
2022/09/11 09:30:01;;;;;;;9.85;7.90;;;;;;;23.69;69.53;94825.91;5091517;27;20117;-67
2022/09/11 09:32:32;;;;;;;8.75;6.65;;;;;;;23.55;69.72;94814.66;5059410;28;20060;-67
2022/09/11 09:35:09;;;;;;;8.32;6.78;;;;;;;23.75;70.10;94819.34;5077494;28;20139;-67
2022/09/11 09:37:37;;;;;;;9.63;7.07;;;;;;;23.79;70.72;94814.97;5076420;28;20560;-67
2022/09/11 09:40:08;;;;;;;13.70;8.95;;;;;;;23.96;71.09;94818.72;5079451;28;20040;-66
2022/09/11 09:42:35;;;;;;;10.55;7.22;;;;;;;24.08;66.82;94821.50;5097861;27;20044;-67
2022/09/11 09:45:32;;;;;;;10.23;8.00;;;;;;;24.05;66.98;94811.50;5080295;28;20175;-67
2022/09/11 09:48:00;;;;;;;9.00;7.75;;;;;;;24.33;67.48;94808.47;5063288;28;20048;-67
2022/09/11 09:50:38;;;;;;;10.98;7.75;;;;;;;24.34;65.57;94786.06;5079754;28;20040;-78
2022/09/11 09:53:10;;;;;;;10.13;8.40;;;;;;;24.41;63.85;94808.41;5078802;28;20038;-68
2022/09/11 09:55:39;;;;;;;13.82;9.98;;;;;;;24.33;62.68;94801.25;5077485;28;20044;-70
2022/09/11 09:58:06;;;;;;;22.63;11.80;;;;;;;24.29;62.68;94804.84;5081684;28;20089;-67
2022/09/11 10:00:36;;;;;;;22.58;18.17;;;;;;;24.12;64.32;94808.34;5084234;28;20104;-67
2022/09/11 10:03:24;;;;;;;10.32;8.77;;;;;;;24.36;65.77;94794.50;5081448;28;20052;-67
2022/09/11 10:05:55;;;;;;;14.60;9.18;;;;;;;24.47;64.60;94806.38;5104305;27;20070;-67
2022/09/11 10:08:37;;;;;;;16.65;12.68;;;;;;;24.70;61.02;94792.81;5099146;27;20815;-68
2022/09/11 10:11:11;;;;;;;10.57;8.23;;;;;;;24.80;54.82;94789.78;5105030;27;20093;-68
2022/09/11 10:13:41;;;;;;;12.95;7.70;;;;;;;24.91;53.98;94784.88;5100970;27;20039;-67
2022/09/11 10:16:24;;;;;;;9.30;7.45;;;;;;;24.87;54.85;94782.06;5105849;27;20159;-68
2022/09/11 10:18:53;;;;;;;16.10;11.77;;;;;;;24.71;56.07;94779.19;5101620;27;20130;-67
2022/09/11 10:21:23;;;;;;;19.15;14.25;;;;;;;24.69;54.90;94785.94;5102816;27;20070;-68
2022/09/11 10:23:52;;;;;;;18.45;14.15;;;;;;;24.76;55.83;94786.22;5081481;27;20520;-69
2022/09/11 10:26:49;;;;;;;17.88;12.43;;;;;;;24.94;55.81;94777.00;5105432;27;20047;-69
2022/09/11 10:29:25;;;;;;;12.43;8.95;;;;;;;24.99;52.86;94784.81;5099237;27;20100;-68
2022/09/11 10:31:54;;;;;;;9.95;7.35;;;;;;;25.09;51.87;94769.53;5089714;27;20695;-68
2022/09/11 10:34:24;;;;;;;8.45;6.80;;;;;;;25.32;50.95;94776.13;5098884;27;20032;-68
2022/09/11 10:37:22;;;;;;;7.50;6.20;;;;;;;25.02;49.68;94772.72;5102815;27;20028;-68
2022/09/11 10:39:50;;;;;;;7.47;6.05;;;;;;;24.97;51.57;94776.38;5096753;27;20039;-68
2022/09/11 10:42:24;;;;;;;13.98;7.68;;;;;;;25.25;52.51;94770.53;5097311;27;20043;-68
2022/09/11 10:44:53;;;;;;;8.57;5.68;;;;;;;25.57;49.79;94776.25;5098929;27;20097;-68
2022/09/11 10:47:23;;;;;;;8.20;6.38;;;;;;;25.43;49.31;94771.19;5102634;27;20477;-68
2022/09/11 10:50:16;;;;;;;8.88;6.38;;;;;;;25.57;50.45;94765.59;5101216;27;20036;-69
2022/09/11 10:53:16;;;;;;;8.07;5.53;;;;;;;25.49;47.85;94774.44;5078731;28;20138;-68
2022/09/11 10:55:53;;;;;;;7.75;6.05;;;;;;;25.52;47.92;94784.44;5074041;27;20049;-69
2022/09/11 10:58:24;;;;;;;7.47;5.20;;;;;;;25.38;46.80;94774.81;5098188;27;20075;-68
2022/09/11 11:00:52;;;;;;;7.40;5.93;;;;;;;25.34;48.38;94773.91;5098998;27;20131;-68
2022/09/11 11:03:23;;;;;;;7.03;6.32;;;;;;;25.19;49.26;94756.63;5101629;28;20047;-68
2022/09/11 11:06:02;;;;;;;9.50;7.57;;;;;;;25.62;49.87;94768.03;5100648;27;20043;-68
2022/09/11 11:09:03;;;;;;;8.70;5.20;;;;;;;25.62;45.94;94783.25;5100870;27;20043;-69
2022/09/11 11:11:54;;;;;;;5.43;4.90;;;;;;;25.58;44.76;94772.47;5105399;27;20054;-69
2022/09/11 11:14:48;;;;;;;8.80;5.35;;;;;;;25.66;45.64;94758.28;5105000;27;20039;-68
2022/09/11 11:17:24;;;;;;;7.20;5.43;;;;;;;25.63;46.36;94748.25;5108058;27;20574;-69
2022/09/11 11:20:05;;;;;;;6.68;5.63;;;;;;;25.76;45.00;94757.84;5117117;27;20081;-75
2022/09/11 11:22:48;;;;;;;8.70;5.07;;;;;;;26.04;45.10;94751.19;5088754;27;20286;-75
2022/09/11 11:25:39;;;;;;;8.80;5.28;;;;;;;25.99;44.54;94751.41;5115090;27;20049;-74
2022/09/11 11:28:24;;;;;;;7.65;6.00;;;;;;;26.24;44.79;94757.53;5083239;27;20448;-74
2022/09/11 11:31:18;;;;;;;7.18;5.65;;;;;;;26.14;44.14;94750.72;5090128;28;20051;-75
2022/09/11 11:33:57;;;;;;;11.32;5.68;;;;;;;26.18;44.06;94740.16;5086304;28;20036;-76
2022/09/11 11:36:44;;;;;;;9.00;5.40;;;;;;;26.08;44.51;94731.50;5083895;27;20046;-76
2022/09/11 11:39:42;;;;;;;7.00;5.93;;;;;;;26.11;45.41;94725.50;5105520;27;20039;-76
2022/09/11 11:42:21;;;;;;;10.73;5.50;;;;;;;26.27;44.59;94727.50;5064203;27;20563;-76
2022/09/11 11:44:58;;;;;;;5.07;4.53;;;;;;;26.02;44.42;94732.84;5083245;28;20046;-76